Time;durP1;ratioP1;P1;durP2;ratioP2;P2;SDS_P1;SDS_P2;PMS_P1;PMS_P2;Temp;Humidity;BMP_temperature;BMP_pressure;BME280_temperature;BME280_humidity;BME280_pressure;Samples;Min_cycle;Max_cycle;Signal;HPM_P1;HPM_P2
2022/05/03 00:01:50;;;;;;;10.50;8.48;;;12.30;99.00;;;;;;5093527;28;20031;-61
2022/05/03 00:04:33;;;;;;;12.55;8.00;;;12.30;99.30;;;;;;5093868;28;20026;-59
2022/05/03 00:07:34;;;;;;;13.10;8.50;;;12.40;99.10;;;;;;5093841;28;20089;-60
2022/05/03 00:10:05;;;;;;;13.40;8.93;;;12.40;99.60;;;;;;5074004;28;20051;-61
2022/05/03 00:12:47;;;;;;;15.45;9.95;;;12.50;99.10;;;;;;5093618;28;20482;-57
2022/05/03 00:15:16;;;;;;;36.05;24.98;;;12.50;99.50;;;;;;5093600;28;20129;-60
2022/05/03 00:17:43;;;;;;;17.40;12.90;;;12.50;99.90;;;;;;5093556;28;20035;-59
2022/05/03 00:20:09;;;;;;;14.95;10.60;;;12.40;99.50;;;;;;5093643;28;20024;-61
2022/05/03 00:22:35;;;;;;;13.27;8.63;;;12.30;99.80;;;;;;5093527;28;20024;-61
2022/05/03 00:25:02;;;;;;;11.40;8.10;;;12.30;99.70;;;;;;5093470;28;20031;-61
2022/05/03 00:27:28;;;;;;;12.55;7.70;;;12.30;99.90;;;;;;5093650;28;20470;-59
2022/05/03 00:29:58;;;;;;;11.23;8.55;;;12.40;99.60;;;;;;5093284;28;20016;-61
2022/05/03 00:32:26;;;;;;;13.70;8.73;;;12.50;99.90;;;;;;5093655;28;20082;-61
2022/05/03 00:34:53;;;;;;;14.65;9.90;;;12.50;99.90;;;;;;5093712;28;20032;-61
2022/05/03 00:37:19;;;;;;;13.15;8.18;;;12.50;99.90;;;;;;5093280;28;20493;-60
2022/05/03 00:39:45;;;;;;;13.80;7.65;;;12.40;99.90;;;;;;5093294;28;20028;-61
2022/05/03 00:42:36;;;;;;;13.60;8.45;;;12.40;99.90;;;;;;5093633;28;20024;-57
2022/05/03 00:45:25;;;;;;;10.63;8.20;;;12.40;99.90;;;;;;5093015;28;20020;-60
2022/05/03 00:47:53;;;;;;;15.43;8.32;;;12.40;99.90;;;;;;5093334;28;20030;-61
2022/05/03 00:50:32;;;;;;;16.95;10.13;;;12.40;99.90;;;;;;5093226;28;20101;-60
2022/05/03 00:53:12;;;;;;;15.23;9.13;;;12.30;99.90;;;;;;5093379;28;20040;-59
2022/05/03 00:56:41;;;;;;;14.13;9.07;;;12.20;99.90;;;;;;5092956;28;20048;-60
2022/05/03 00:59:22;;;;;;;12.45;8.80;;;12.20;99.90;;;;;;5030556;28;20116;-61
2022/05/03 01:01:57;;;;;;;19.27;13.00;;;12.10;99.90;;;;;;5086539;28;20035;-60
2022/05/03 01:04:44;;;;;;;17.70;13.48;;;12.20;99.90;;;;;;5093212;28;20023;-60
2022/05/03 01:07:55;;;;;;;14.70;11.52;;;12.20;99.90;;;;;;5093002;28;20058;-61
2022/05/03 01:10:31;;;;;;;13.75;8.77;;;12.30;99.90;;;;;;5081876;28;20027;-60
2022/05/03 01:13:14;;;;;;;11.80;8.38;;;12.30;99.90;;;;;;5092832;28;20125;-60
2022/05/03 01:15:46;;;;;;;10.73;7.57;;;12.20;99.90;;;;;;5096711;28;20016;-60
2022/05/03 01:18:26;;;;;;;9.75;7.32;;;12.20;99.90;;;;;;5097062;28;20508;-59
2022/05/03 01:21:18;;;;;;;9.15;6.63;;;12.20;99.90;;;;;;5097150;28;20024;-60
2022/05/03 01:23:56;;;;;;;8.63;6.15;;;12.30;99.90;;;;;;5097033;28;20020;-61
2022/05/03 01:26:46;;;;;;;6.18;4.80;;;12.30;99.90;;;;;;5096909;28;20024;-60
2022/05/03 01:29:28;;;;;;;6.63;4.93;;;12.30;99.90;;;;;;5096542;28;20042;-60
2022/05/03 01:32:04;;;;;;;7.10;4.72;;;12.50;99.90;;;;;;5096801;28;20028;-60
2022/05/03 01:34:31;;;;;;;9.32;5.85;;;12.50;99.90;;;;;;5096677;28;20020;-60
2022/05/03 01:36:59;;;;;;;9.00;5.05;;;12.60;99.90;;;;;;5096948;28;20043;-60
2022/05/03 01:40:01;;;;;;;8.32;4.78;;;12.60;99.90;;;;;;5096648;28;20096;-61
2022/05/03 01:42:59;;;;;;;5.65;4.18;;;12.60;99.90;;;;;;5096471;28;20019;-61
2022/05/03 01:45:55;;;;;;;6.20;4.20;;;12.60;99.90;;;;;;5096804;28;20050;-60
2022/05/03 01:52:08;;;;;;;6.25;4.10;;;12.70;99.90;;;;;;5096376;28;20073;-60
2022/05/03 01:54:57;;;;;;;5.32;3.92;;;12.60;99.90;;;;;;5096218;28;20378;-60
2022/05/03 01:57:51;;;;;;;6.43;4.43;;;12.60;99.90;;;;;;5096003;28;20536;-60
2022/05/03 02:00:19;;;;;;;5.68;3.80;;;12.60;99.90;;;;;;5096188;28;20036;-60
2022/05/03 02:02:54;;;;;;;4.85;3.63;;;12.60;99.90;;;;;;5096463;28;20028;-60
2022/05/03 02:05:34;;;;;;;6.70;3.90;;;12.60;99.90;;;;;;5096232;28;20496;-60
2022/05/03 02:08:00;;;;;;;7.03;4.30;;;12.60;99.90;;;;;;5096087;28;20032;-61
2022/05/03 02:10:53;;;;;;;7.70;5.10;;;12.60;99.90;;;;;;5096207;28;20378;-60
2022/05/03 02:16:30;;;;;;;8.35;5.40;;;12.40;99.90;;;;;;5095942;28;20154;-61
2022/05/03 02:19:37;;;;;;;11.68;6.18;;;12.30;99.90;;;;;;5095769;28;20039;-59
2022/05/03 02:22:33;;;;;;;8.45;5.82;;;12.20;99.90;;;;;;5095807;28;20493;-60
2022/05/03 02:25:11;;;;;;;8.85;5.25;;;12.10;99.90;;;;;;5095572;28;20531;-60
2022/05/03 02:27:42;;;;;;;7.57;5.20;;;12.10;99.90;;;;;;5095514;28;20102;-60
2022/05/03 02:30:08;;;;;;;10.70;6.53;;;12.10;99.90;;;;;;5095671;28;20078;-59
2022/05/03 02:33:01;;;;;;;7.32;5.55;;;12.10;99.90;;;;;;5095485;28;20020;-58
2022/05/03 02:35:33;;;;;;;10.68;5.68;;;12.00;99.90;;;;;;5095486;28;20020;-59
2022/05/03 02:38:06;;;;;;;6.68;4.65;;;12.00;99.90;;;;;;5095720;28;20040;-60
2022/05/03 02:40:33;;;;;;;4.65;4.10;;;12.00;99.90;;;;;;5095572;28;20024;-60
2022/05/03 02:43:00;;;;;;;12.77;8.00;;;12.10;99.90;;;;;;5095368;28;20031;-59
2022/05/03 02:45:28;;;;;;;15.43;10.63;;;12.20;99.90;;;;;;5095642;28;20089;-60
2022/05/03 02:48:17;;;;;;;19.52;12.32;;;12.20;99.90;;;;;;5095627;28;20028;-60
2022/05/03 02:51:07;;;;;;;24.00;14.45;;;12.20;99.90;;;;;;5095311;28;20466;-61
2022/05/03 02:53:55;;;;;;;21.27;12.20;;;12.30;99.90;;;;;;5084832;28;20028;-60
2022/05/03 02:56:28;;;;;;;19.85;11.90;;;12.30;99.90;;;;;;5094756;28;20465;-60
2022/05/03 02:59:19;;;;;;;12.90;8.45;;;12.30;99.90;;;;;;5094975;28;20040;-59
2022/05/03 03:02:02;;;;;;;9.77;7.22;;;12.20;99.90;;;;;;5095195;28;20024;-60
2022/05/03 03:04:35;;;;;;;9.57;6.65;;;12.10;99.90;;;;;;5095032;28;20054;-60
2022/05/03 03:07:03;;;;;;;7.23;5.63;;;12.00;99.90;;;;;;5094917;28;20024;-60
2022/05/03 03:09:38;;;;;;;8.02;5.40;;;12.10;99.90;;;;;;5094974;28;20032;-61
2022/05/03 03:12:26;;;;;;;6.25;4.55;;;12.10;99.90;;;;;;5094904;28;20024;-61
2022/05/03 03:15:09;;;;;;;6.13;4.28;;;12.20;99.90;;;;;;5094935;28;20044;-59
2022/05/03 03:17:43;;;;;;;5.50;3.90;;;12.20;99.90;;;;;;5094615;28;20059;-59
2022/05/03 03:20:13;;;;;;;4.80;3.65;;;12.20;99.90;;;;;;5094979;28;20378;-60
2022/05/03 03:22:48;;;;;;;5.57;3.70;;;12.20;99.90;;;;;;5094633;28;20024;-60
2022/05/03 03:25:16;;;;;;;5.32;3.47;;;12.20;99.90;;;;;;5094576;28;20024;-59
2022/05/03 03:27:47;;;;;;;5.32;3.45;;;12.20;99.90;;;;;;5094578;28;20462;-60
2022/05/03 03:30:15;;;;;;;5.05;3.72;;;12.20;99.90;;;;;;5094434;28;20028;-60
2022/05/03 03:33:01;;;;;;;5.25;4.10;;;12.10;99.90;;;;;;5094590;28;20030;-59
2022/05/03 03:35:30;;;;;;;7.50;5.18;;;12.00;99.90;;;;;;5094564;28;20028;-60
2022/05/03 03:37:59;;;;;;;6.35;4.65;;;11.90;99.90;;;;;;5093862;28;20032;-60
2022/05/03 03:40:26;;;;;;;6.68;4.25;;;11.80;99.90;;;;;;5094321;28;20028;-59
2022/05/03 03:42:51;;;;;;;6.53;4.22;;;11.80;99.90;;;;;;5094227;28;20030;-60
2022/05/03 03:45:18;;;;;;;5.20;3.97;;;11.80;99.90;;;;;;5094437;28;20094;-61
2022/05/03 03:47:45;;;;;;;5.38;3.33;;;11.90;99.90;;;;;;5094293;28;20090;-60
2022/05/03 03:50:11;;;;;;;5.38;3.75;;;11.90;99.90;;;;;;5094079;28;20016;-61
2022/05/03 03:52:39;;;;;;;4.78;3.70;;;12.00;99.90;;;;;;5093727;28;20020;-60
2022/05/03 03:55:07;;;;;;;4.00;3.03;;;12.00;99.90;;;;;;5093837;28;20478;-61
2022/05/03 03:57:35;;;;;;;5.28;3.50;;;12.00;99.90;;;;;;5094082;28;20036;-59
2022/05/03 04:00:07;;;;;;;5.90;3.33;;;12.00;99.90;;;;;;5094007;28;20020;-59
2022/05/03 04:02:34;;;;;;;4.85;3.47;;;11.90;99.90;;;;;;5094015;28;20023;-59
2022/05/03 04:05:01;;;;;;;5.65;3.53;;;12.00;99.90;;;;;;5094054;28;20406;-60
2022/05/03 04:07:26;;;;;;;5.07;3.40;;;12.00;99.90;;;;;;5093589;28;20061;-59
2022/05/03 04:09:52;;;;;;;3.80;3.40;;;12.00;99.90;;;;;;5093908;28;20446;-59
2022/05/03 04:12:21;;;;;;;5.70;3.55;;;12.00;99.90;;;;;;5093668;28;20024;-61
2022/05/03 04:14:48;;;;;;;6.47;3.53;;;11.90;99.90;;;;;;5093729;28;20473;-61
2022/05/03 04:17:13;;;;;;;4.60;3.00;;;12.00;99.90;;;;;;5093582;28;20471;-60
2022/05/03 04:19:40;;;;;;;4.15;3.28;;;12.00;99.90;;;;;;5093579;28;20016;-61
2022/05/03 04:22:29;;;;;;;3.72;2.92;;;12.10;99.90;;;;;;5093576;28;20020;-60
2022/05/03 04:24:56;;;;;;;5.18;3.65;;;12.10;99.90;;;;;;5093518;28;20046;-61
2022/05/03 04:27:22;;;;;;;5.30;3.28;;;12.20;99.90;;;;;;5093531;28;20108;-60
2022/05/03 04:29:48;;;;;;;3.92;2.88;;;12.10;99.90;;;;;;5093477;28;20028;-60
2022/05/03 04:32:15;;;;;;;4.00;3.33;;;12.20;99.90;;;;;;5093473;28;20090;-61
2022/05/03 04:34:40;;;;;;;5.85;3.80;;;12.20;99.90;;;;;;5093491;28;20024;-58
2022/05/03 04:37:06;;;;;;;5.53;3.50;;;12.10;99.90;;;;;;5093243;28;20016;-60
2022/05/03 04:39:32;;;;;;;4.97;3.88;;;12.20;99.90;;;;;;5093456;28;20020;-60
2022/05/03 04:41:58;;;;;;;5.00;4.00;;;12.20;99.90;;;;;;5093512;28;20072;-60
2022/05/03 04:44:24;;;;;;;4.82;3.35;;;12.20;99.90;;;;;;5093487;28;20394;-60
2022/05/03 04:46:49;;;;;;;4.68;3.35;;;12.20;99.90;;;;;;5093224;28;20049;-60
2022/05/03 04:49:15;;;;;;;9.50;6.00;;;12.30;99.90;;;;;;5094687;28;20039;-60
2022/05/03 04:51:41;;;;;;;9.52;6.28;;;12.40;99.90;;;;;;5097306;28;20386;-58
2022/05/03 04:54:07;;;;;;;7.95;4.97;;;12.30;99.90;;;;;;5097608;28;20024;-60
2022/05/03 04:56:33;;;;;;;8.52;5.10;;;12.40;99.90;;;;;;5097237;28;20558;-61
2022/05/03 04:59:01;;;;;;;6.80;4.90;;;12.40;99.90;;;;;;5097224;28;20040;-60
2022/05/03 05:01:27;;;;;;;6.53;4.78;;;12.50;99.90;;;;;;5097395;28;20078;-58
2022/05/03 05:03:52;;;;;;;6.75;4.30;;;12.60;99.90;;;;;;5097567;28;20459;-60
2022/05/03 05:06:19;;;;;;;5.07;4.30;;;12.60;99.90;;;;;;5097305;28;20027;-59
2022/05/03 05:08:45;;;;;;;5.38;4.03;;;12.60;99.90;;;;;;5097245;28;20028;-60
2022/05/03 05:11:11;;;;;;;8.02;4.45;;;12.60;99.90;;;;;;5097161;28;20413;-61
2022/05/03 05:13:38;;;;;;;4.68;3.97;;;12.70;99.90;;;;;;5097195;28;20084;-60
2022/05/03 05:16:05;;;;;;;6.72;4.63;;;12.80;99.90;;;;;;5097088;28;20024;-59
2022/05/03 05:18:31;;;;;;;7.47;4.65;;;12.80;99.90;;;;;;5097230;28;20028;-59
2022/05/03 05:20:57;;;;;;;6.43;4.60;;;12.90;99.90;;;;;;5097078;28;20046;-61
2022/05/03 05:23:23;;;;;;;6.60;4.60;;;13.00;99.90;;;;;;5097095;28;20031;-60
2022/05/03 05:25:50;;;;;;;6.75;5.13;;;13.10;99.90;;;;;;5096875;28;20035;-60
2022/05/03 05:28:18;;;;;;;6.75;4.88;;;13.10;99.90;;;;;;5096811;28;20596;-60
2022/05/03 05:30:44;;;;;;;6.40;4.55;;;13.10;99.90;;;;;;5096838;28;20383;-60
2022/05/03 05:33:10;;;;;;;7.22;5.35;;;13.20;99.90;;;;;;5096796;28;20024;-59
2022/05/03 05:35:36;;;;;;;7.55;6.07;;;13.20;99.90;;;;;;5096454;28;20103;-60
2022/05/03 05:38:03;;;;;;;7.35;6.03;;;13.30;99.90;;;;;;5096597;28;20039;-60
2022/05/03 05:40:28;;;;;;;10.35;6.60;;;13.40;99.90;;;;;;5096716;28;20020;-59
2022/05/03 05:42:55;;;;;;;6.57;5.13;;;13.50;99.90;;;;;;5096785;28;20016;-60
2022/05/03 05:45:21;;;;;;;6.38;5.05;;;13.60;99.90;;;;;;5096659;28;20042;-59
2022/05/03 05:47:46;;;;;;;8.23;5.57;;;13.70;99.90;;;;;;5096729;28;20115;-60
2022/05/03 05:50:12;;;;;;;8.10;5.00;;;13.90;99.90;;;;;;5096150;28;20016;-60
2022/05/03 05:55:23;;;;;;;9.02;6.65;;;14.20;99.90;;;;;;5096432;28;20074;-61
2022/05/03 05:57:49;;;;;;;11.77;8.95;;;14.30;98.60;;;;;;5096485;28;20036;-60
2022/05/03 06:00:16;;;;;;;13.05;8.45;;;14.40;98.90;;;;;;5095949;28;20020;-60
2022/05/03 06:02:42;;;;;;;11.40;8.40;;;14.40;99.40;;;;;;5096076;28;20020;-61
2022/05/03 06:05:08;;;;;;;12.63;9.25;;;14.60;99.60;;;;;;5096295;28;20050;-59
2022/05/03 06:07:33;;;;;;;10.75;8.98;;;14.70;99.50;;;;;;5096383;28;20103;-60
2022/05/03 06:09:59;;;;;;;10.23;7.90;;;14.90;98.00;;;;;;5096264;28;20464;-61
2022/05/03 06:12:25;;;;;;;15.63;11.30;;;15.00;98.80;;;;;;5095976;28;20028;-60
2022/05/03 06:14:51;;;;;;;14.18;9.38;;;15.20;97.20;;;;;;5096016;28;20023;-59
2022/05/03 06:17:18;;;;;;;20.30;12.70;;;15.30;99.30;;;;;;5095716;28;20021;-60
2022/05/03 06:19:44;;;;;;;15.73;11.57;;;15.40;96.70;;;;;;5095816;28;20097;-61
2022/05/03 06:22:10;;;;;;;17.48;12.50;;;15.40;97.60;;;;;;5095973;28;20020;-60
2022/05/03 06:24:38;;;;;;;11.60;10.40;;;15.60;97.30;;;;;;5095793;28;20024;-61
2022/05/03 06:27:04;;;;;;;13.75;10.50;;;15.70;96.50;;;;;;5095757;28;20028;-59
2022/05/03 06:29:32;;;;;;;21.10;13.82;;;15.90;95.70;;;;;;5095976;28;20028;-60
2022/05/03 06:31:59;;;;;;;21.13;14.02;;;16.10;95.90;;;;;;5095758;28;20476;-60
2022/05/03 06:34:25;;;;;;;21.77;13.65;;;16.00;95.30;;;;;;5095385;28;20048;-61
2022/05/03 06:36:51;;;;;;;21.65;13.75;;;15.90;95.30;;;;;;5095517;28;20497;-59
2022/05/03 06:39:17;;;;;;;16.55;12.25;;;16.00;95.70;;;;;;5095367;28;20028;-61
2022/05/03 06:41:43;;;;;;;18.15;12.88;;;16.10;95.00;;;;;;5095676;28;20024;-60
2022/05/03 06:44:08;;;;;;;14.55;11.13;;;16.20;94.40;;;;;;5095640;28;20035;-60
2022/05/03 06:46:34;;;;;;;11.77;8.70;;;16.40;93.70;;;;;;5095207;28;20023;-60
2022/05/03 06:49:00;;;;;;;15.82;10.23;;;16.90;93.30;;;;;;5095466;28;20052;-60
2022/05/03 06:51:26;;;;;;;10.75;8.35;;;18.20;88.80;;;;;;5095171;28;20473;-60
2022/05/03 06:53:52;;;;;;;16.50;10.88;;;19.80;85.60;;;;;;5095276;28;20497;-61
2022/05/03 06:56:18;;;;;;;21.02;14.02;;;21.20;73.70;;;;;;5094988;28;20040;-61
2022/05/03 06:58:44;;;;;;;19.15;12.48;;;21.70;65.00;;;;;;5094909;28;20497;-60
2022/05/03 07:01:14;;;;;;;20.10;12.95;;;21.90;60.50;;;;;;5094883;28;20103;-60
2022/05/03 07:03:41;;;;;;;19.15;13.13;;;22.20;58.40;;;;;;5095327;28;20024;-61
2022/05/03 07:06:08;;;;;;;17.88;13.13;;;21.90;57.70;;;;;;5095166;28;20124;-61
2022/05/03 07:08:34;;;;;;;21.65;15.15;;;22.00;59.30;;;;;;5094932;28;20025;-61
2022/05/03 07:11:00;;;;;;;19.00;14.07;;;22.40;55.70;;;;;;5094543;28;20020;-61
2022/05/03 07:13:27;;;;;;;16.33;11.35;;;23.00;55.70;;;;;;5094224;28;20032;-60
2022/05/03 07:15:53;;;;;;;21.58;14.52;;;24.10;53.20;;;;;;5094722;28;20021;-60
2022/05/03 07:23:48;;;;;;;16.92;11.90;;;27.50;45.00;;;;;;5094823;28;20027;-61
2022/05/03 07:26:14;;;;;;;15.60;10.52;;;28.40;43.00;;;;;;5094881;28;20535;-61
2022/05/03 07:28:40;;;;;;;12.50;9.52;;;28.60;43.30;;;;;;5094845;28;20066;-61
2022/05/03 07:31:06;;;;;;;10.68;8.88;;;29.10;43.40;;;;;;5094393;28;20035;-61
2022/05/03 07:33:32;;;;;;;10.63;8.07;;;29.50;42.10;;;;;;5094383;28;20020;-61
2022/05/03 07:35:58;;;;;;;12.52;10.18;;;30.00;39.70;;;;;;5094687;28;20027;-62
2022/05/03 07:38:24;;;;;;;15.18;10.35;;;30.40;40.20;;;;;;5094577;28;20463;-60
2022/05/03 07:40:49;;;;;;;12.60;9.65;;;30.10;41.00;;;;;;5094228;28;20020;-61
2022/05/03 07:43:15;;;;;;;14.20;10.23;;;30.20;40.20;;;;;;5094362;28;20031;-61
2022/05/03 07:45:41;;;;;;;15.55;10.73;;;30.30;40.00;;;;;;5094259;28;20020;-61
2022/05/03 07:48:06;;;;;;;13.15;9.45;;;30.20;40.60;;;;;;5094113;28;20063;-62
2022/05/03 07:50:33;;;;;;;12.32;9.52;;;30.30;40.10;;;;;;5094111;28;20023;-60
2022/05/03 07:52:58;;;;;;;19.52;13.15;;;30.70;40.20;;;;;;5094168;28;20077;-60
2022/05/03 07:55:24;;;;;;;17.88;12.85;;;31.10;38.30;;;;;;5093862;28;20051;-61
2022/05/03 07:57:50;;;;;;;15.52;12.25;;;30.30;38.50;;;;;;5094177;28;20077;-61
2022/05/03 08:00:17;;;;;;;17.67;11.80;;;30.10;39.20;;;;;;5093916;28;20048;-61
2022/05/03 08:02:43;;;;;;;12.73;10.35;;;30.60;40.70;;;;;;5093946;28;20485;-62
2022/05/03 08:05:10;;;;;;;11.95;9.13;;;31.20;38.50;;;;;;5093822;28;20027;-60
2022/05/03 08:07:36;;;;;;;13.30;10.40;;;31.30;39.80;;;;;;5093884;28;20385;-61
2022/05/03 08:10:05;;;;;;;14.48;10.93;;;31.80;37.70;;;;;;5093928;28;20020;-62
2022/05/03 08:12:31;;;;;;;11.32;8.02;;;32.10;36.60;;;;;;5093780;28;20115;-61
2022/05/03 08:14:57;;;;;;;11.70;8.27;;;32.10;38.20;;;;;;5093777;28;20043;-60
2022/05/03 08:17:27;;;;;;;10.25;7.85;;;31.90;38.30;;;;;;5093749;28;20028;-61
2022/05/03 08:19:53;;;;;;;12.70;8.70;;;31.80;36.30;;;;;;5094021;28;20020;-61
2022/05/03 08:22:19;;;;;;;14.93;10.18;;;31.80;35.50;;;;;;5093597;28;20055;-60
2022/05/03 08:24:45;;;;;;;16.75;11.48;;;32.10;35.20;;;;;;5093570;28;20063;-60
2022/05/03 08:27:10;;;;;;;15.25;10.45;;;31.70;35.40;;;;;;5093481;28;20103;-60
2022/05/03 08:29:36;;;;;;;25.77;12.82;;;32.00;36.20;;;;;;5093524;28;20055;-60
2022/05/03 08:32:03;;;;;;;16.67;11.27;;;31.90;37.30;;;;;;5093826;28;20012;-61
2022/05/03 08:34:29;;;;;;;13.80;10.80;;;31.50;36.40;;;;;;5093446;28;20149;-61
2022/05/03 08:42:24;;;;;;;15.73;12.88;;;31.30;35.60;;;;;;5093316;28;20502;-61
2022/05/03 08:44:50;;;;;;;13.50;11.20;;;31.20;36.80;;;;;;5093257;28;20026;-62
2022/05/03 08:47:19;;;;;;;14.38;10.90;;;31.30;38.10;;;;;;5093332;28;20032;-61
2022/05/03 08:50:06;;;;;;;22.50;15.02;;;31.30;38.90;;;;;;5093273;28;20527;-62
2022/05/03 08:52:54;;;;;;;15.20;12.88;;;29.70;36.40;;;;;;5093424;28;20024;-61
2022/05/03 08:55:21;;;;;;;16.70;12.85;;;28.90;39.40;;;;;;5092489;28;20048;-62
2022/05/03 08:57:47;;;;;;;18.08;13.20;;;29.00;37.90;;;;;;5093330;28;20055;-60
2022/05/03 09:00:14;;;;;;;13.98;11.77;;;29.40;40.20;;;;;;5093112;28;20386;-60
2022/05/03 09:02:46;;;;;;;14.40;11.45;;;30.00;38.40;;;;;;5093461;28;20024;-61
2022/05/03 09:05:12;;;;;;;15.23;11.10;;;29.90;38.50;;;;;;5093211;28;20016;-61
2022/05/03 09:07:37;;;;;;;15.25;12.10;;;30.20;40.20;;;;;;5093235;28;20085;-60
2022/05/03 09:10:24;;;;;;;14.63;11.02;;;30.50;38.50;;;;;;5093094;28;20020;-62
2022/05/03 09:12:50;;;;;;;16.13;12.48;;;30.60;37.50;;;;;;5092998;28;20012;-61
2022/05/03 09:15:29;;;;;;;17.58;13.18;;;30.20;37.30;;;;;;5093155;28;20032;-61
2022/05/03 09:17:55;;;;;;;18.63;14.13;;;30.30;36.20;;;;;;5092306;28;20514;-61
2022/05/03 09:26:15;;;;;;;11.80;9.73;;;29.40;38.30;;;;;;5092951;28;20081;-62
2022/05/03 09:28:45;;;;;;;14.48;9.25;;;28.60;38.10;;;;;;5092893;28;20049;-61
2022/05/03 09:31:11;;;;;;;15.38;11.82;;;28.20;39.30;;;;;;5092805;28;20027;-61
2022/05/03 09:33:37;;;;;;;13.77;10.45;;;28.20;38.90;;;;;;5092733;28;20028;-62
2022/05/03 09:36:10;;;;;;;13.60;9.70;;;28.20;39.90;;;;;;5095333;28;20020;-60
2022/05/03 09:38:46;;;;;;;;;;;27.40;39.00;;;;;;5097033;28;20036;-61
2022/05/03 09:41:16;;;;;;;11.20;7.60;;;27.40;38.50;;;;;;5096706;28;19904;-60
2022/05/03 09:44:08;;;;;;;10.05;7.40;;;27.30;38.00;;;;;;5096620;28;20107;-61
2022/05/03 09:46:51;;;;;;;8.65;7.25;;;27.10;38.20;;;;;;5096529;28;20070;-60
2022/05/03 09:49:17;;;;;;;;;;;27.00;38.50;;;;;;5096854;28;20085;-61
2022/05/03 09:51:43;;;;;;;8.52;6.22;;;26.50;37.10;;;;;;5096980;28;20263;-61
2022/05/03 09:54:09;;;;;;;7.57;5.95;;;26.80;39.00;;;;;;5096458;28;20031;-60
2022/05/03 09:56:39;;;;;;;9.18;6.55;;;27.20;40.60;;;;;;5095807;28;20390;-60
2022/05/03 09:59:09;;;;;;;8.38;6.93;;;26.90;39.60;;;;;;5096165;28;20039;-61
2022/05/03 10:01:35;;;;;;;9.02;7.13;;;26.70;38.10;;;;;;5096321;28;20027;-61
2022/05/03 10:04:05;;;;;;;10.00;6.45;;;25.80;39.00;;;;;;5096397;28;20028;-61
2022/05/03 10:06:32;;;;;;;9.30;6.00;;;24.60;40.30;;;;;;5096127;28;20486;-61
2022/05/03 10:08:59;;;;;;;8.32;6.63;;;24.10;41.30;;;;;;5096120;28;20409;-61
2022/05/03 10:11:26;;;;;;;8.40;5.95;;;24.30;42.00;;;;;;5096119;28;20020;-60
2022/05/03 10:13:55;;;;;;;7.25;6.10;;;24.40;40.40;;;;;;5096173;28;20474;-62
2022/05/03 10:22:01;;;;;;;7.78;5.30;;;25.20;39.30;;;;;;5096149;28;20160;-61
2022/05/03 10:24:29;;;;;;;8.50;5.85;;;24.30;39.60;;;;;;5095667;28;20458;-62
2022/05/03 10:27:05;;;;;;;6.38;4.50;;;23.30;39.40;;;;;;5095725;28;20043;-62
2022/05/03 10:29:37;;;;;;;5.53;4.60;;;22.60;40.30;;;;;;5095814;28;20024;-61
2022/05/03 10:32:06;;;;;;;7.10;4.80;;;22.70;40.40;;;;;;5095748;28;20024;-61
2022/05/03 10:34:53;;;;;;;5.72;4.25;;;22.80;40.30;;;;;;5095522;28;20016;-61
2022/05/03 10:37:20;;;;;;;6.05;4.18;;;23.10;40.00;;;;;;5095564;28;20474;-62
2022/05/03 10:39:51;;;;;;;6.47;5.30;;;23.50;39.80;;;;;;5095577;28;20024;-60
2022/05/03 10:42:21;;;;;;;7.43;4.38;;;23.30;41.60;;;;;;5095759;28;20028;-62
2022/05/03 10:44:57;;;;;;;6.38;4.55;;;22.90;41.50;;;;;;5095683;28;20080;-62
2022/05/03 10:47:47;;;;;;;6.70;4.82;;;22.40;43.00;;;;;;5094169;28;20141;-60
2022/05/03 10:50:15;;;;;;;7.20;4.88;;;22.50;43.00;;;;;;5095302;28;20443;-61
2022/05/03 10:53:05;;;;;;;6.05;4.20;;;22.70;42.60;;;;;;5095250;28;20032;-62
2022/05/03 10:55:37;;;;;;;7.20;4.38;;;22.60;42.50;;;;;;5094795;28;20044;-60
2022/05/03 10:58:18;;;;;;;5.25;3.70;;;22.20;41.10;;;;;;5095397;28;20058;-60
2022/05/03 11:01:04;;;;;;;4.38;3.08;;;22.10;42.20;;;;;;5095221;28;20035;-61
2022/05/03 11:03:40;;;;;;;4.88;3.20;;;22.40;41.80;;;;;;5095136;28;20070;-61
2022/05/03 11:06:18;;;;;;;3.78;3.10;;;22.60;41.50;;;;;;5094922;28;20498;-60
2022/05/03 11:11:43;;;;;;;3.17;2.45;;;22.70;40.60;;;;;;5095143;28;20032;-61
2022/05/03 11:14:21;;;;;;;3.95;2.97;;;22.60;39.60;;;;;;5094985;28;20020;-61
2022/05/03 11:17:05;;;;;;;5.03;3.35;;;22.70;42.10;;;;;;5094939;28;20363;-61
2022/05/03 11:19:33;;;;;;;3.75;3.03;;;22.80;42.60;;;;;;5094725;28;20107;-62
2022/05/03 11:21:59;;;;;;;3.15;2.85;;;23.00;41.20;;;;;;5094658;28;20355;-61
2022/05/03 11:24:32;;;;;;;3.33;2.40;;;23.20;41.10;;;;;;5094733;28;20050;-61
2022/05/03 11:27:00;;;;;;;3.20;2.55;;;23.50;41.50;;;;;;5094591;28;20020;-61
2022/05/03 11:29:34;;;;;;;2.78;2.50;;;23.40;40.30;;;;;;5094622;28;20433;-62
2022/05/03 11:32:01;;;;;;;3.63;2.83;;;23.50;42.20;;;;;;5094440;28;20110;-61
2022/05/03 11:34:26;;;;;;;3.42;2.42;;;23.80;42.60;;;;;;5094635;28;20016;-60
2022/05/03 11:36:53;;;;;;;5.70;3.70;;;23.80;40.90;;;;;;5094188;28;20089;-60
2022/05/03 11:39:20;;;;;;;4.07;3.30;;;23.70;40.10;;;;;;5094254;28;20035;-61
2022/05/03 11:41:47;;;;;;;4.30;3.63;;;23.50;40.50;;;;;;5094516;28;20431;-60
2022/05/03 11:44:14;;;;;;;4.47;3.30;;;23.20;40.30;;;;;;5094325;28;20478;-61
2022/05/03 11:46:42;;;;;;;4.15;3.15;;;23.20;40.70;;;;;;5094328;28;20024;-61
2022/05/03 11:49:10;;;;;;;3.03;2.60;;;23.50;41.10;;;;;;5094391;28;20099;-61
2022/05/03 11:57:25;;;;;;;3.40;2.60;;;25.90;43.70;;;;;;5093865;28;20136;-60
2022/05/03 11:59:55;;;;;;;2.45;2.10;;;26.60;37.70;;;;;;5094199;28;20044;-61
2022/05/03 12:02:32;;;;;;;2.70;2.10;;;26.90;38.00;;;;;;5093943;28;20085;-61
2022/05/03 12:05:22;;;;;;;2.53;2.00;;;26.80;36.40;;;;;;5093908;28;20024;-60
2022/05/03 12:07:53;;;;;;;2.22;1.70;;;26.80;38.00;;;;;;5080521;28;20040;-60
2022/05/03 12:10:25;;;;;;;4.22;1.70;;;27.30;34.40;;;;;;5093790;28;20058;-61
2022/05/03 12:13:38;;;;;;;4.00;2.10;;;26.60;33.60;;;;;;5093780;28;20103;-61
2022/05/03 12:16:08;;;;;;;2.15;1.65;;;26.40;35.60;;;;;;4992200;28;20062;-60
2022/05/03 12:18:39;;;;;;;4.22;1.77;;;26.10;34.60;;;;;;5076066;28;20119;-61
2022/05/03 12:21:11;;;;;;;1.60;1.50;;;25.80;35.70;;;;;;5093512;28;20023;-60
2022/05/03 12:23:47;;;;;;;1.92;1.45;;;25.50;34.60;;;;;;5093889;28;20020;-62
2022/05/03 12:26:15;;;;;;;2.17;1.40;;;25.30;37.00;;;;;;5093674;28;20608;-61
2022/05/03 12:28:43;;;;;;;1.10;1.08;;;25.20;36.50;;;;;;5093584;28;20054;-60
2022/05/03 12:31:10;;;;;;;1.98;1.77;;;25.20;38.70;;;;;;5093489;28;20494;-62
2022/05/03 12:33:44;;;;;;;1.58;1.42;;;25.20;37.40;;;;;;5093766;28;20169;-61
2022/05/03 12:36:10;;;;;;;2.03;1.63;;;25.10;37.60;;;;;;5093265;28;20025;-61
2022/05/03 12:38:49;;;;;;;1.60;1.40;;;25.10;39.10;;;;;;5093266;28;20047;-60
2022/05/03 12:41:31;;;;;;;2.30;2.00;;;24.90;38.30;;;;;;5093373;28;20020;-61
2022/05/03 12:44:14;;;;;;;2.88;1.70;;;24.80;39.80;;;;;;5093348;28;20028;-60
2022/05/03 12:46:41;;;;;;;2.55;1.60;;;24.60;37.70;;;;;;5093332;28;20024;-61
2022/05/03 12:49:12;;;;;;;1.95;1.83;;;24.40;38.40;;;;;;5093329;28;20027;-61
2022/05/03 12:51:43;;;;;;;2.08;1.80;;;24.40;40.00;;;;;;5093288;28;20056;-60
2022/05/03 12:54:10;;;;;;;1.80;1.70;;;24.40;39.30;;;;;;5093361;28;20095;-60
2022/05/03 12:59:21;;;;;;;1.95;1.50;;;24.40;38.70;;;;;;5093204;28;20035;-61
2022/05/03 13:01:50;;;;;;;2.63;1.80;;;24.40;39.90;;;;;;5093397;28;20024;-61
2022/05/03 13:04:19;;;;;;;3.30;2.00;;;24.30;38.40;;;;;;5092970;28;20085;-60
2022/05/03 13:06:46;;;;;;;3.08;1.90;;;24.00;39.90;;;;;;5093456;28;20036;-62
2022/05/03 13:09:13;;;;;;;5.20;2.50;;;23.70;39.50;;;;;;5093099;28;20028;-61
2022/05/03 13:11:39;;;;;;;2.80;1.90;;;23.40;40.00;;;;;;5097105;28;20020;-61
2022/05/03 13:14:06;;;;;;;3.00;2.28;;;23.50;42.50;;;;;;5097472;28;20020;-60
2022/05/03 13:16:32;;;;;;;7.88;2.15;;;23.50;42.30;;;;;;5097304;28;20359;-60
2022/05/03 13:18:58;;;;;;;3.42;1.70;;;23.40;41.20;;;;;;5096939;28;20081;-62
2022/05/03 13:21:23;;;;;;;2.55;2.22;;;23.30;41.70;;;;;;5097335;28;20394;-60
2022/05/03 13:23:49;;;;;;;2.65;2.45;;;23.20;41.30;;;;;;5097181;28;20024;-61
2022/05/03 13:26:15;;;;;;;5.43;4.60;;;23.20;41.30;;;;;;5097222;28;20097;-60
2022/05/03 13:28:41;;;;;;;10.60;8.52;;;23.10;39.60;;;;;;5097191;28;20363;-60
2022/05/03 13:31:07;;;;;;;15.82;9.60;;;22.80;39.10;;;;;;5096810;28;20033;-61
2022/05/03 13:33:33;;;;;;;8.13;6.55;;;22.60;39.80;;;;;;5096897;28;20024;-62
2022/05/03 13:41:44;;;;;;;10.98;5.65;;;22.80;41.50;;;;;;5086773;28;20086;-61
2022/05/03 13:44:11;;;;;;;6.97;4.85;;;22.90;39.90;;;;;;5096646;28;20044;-61
2022/05/03 13:46:36;;;;;;;11.95;6.50;;;22.80;41.20;;;;;;5096624;28;20020;-61
2022/05/03 13:49:03;;;;;;;6.35;4.15;;;23.00;40.90;;;;;;5096305;28;20024;-60
2022/05/03 13:51:29;;;;;;;6.05;3.88;;;23.10;40.70;;;;;;5096757;28;20028;-61